sensor_id;sensor_type;location;lat;lon;timestamp;temperature;humidity
16907;DHT22;8570;52.380;4.654;2022-07-03T00:03:30;18.40;96.80
16907;DHT22;8570;52.380;4.654;2022-07-03T00:08:31;18.40;96.90
16907;DHT22;8570;52.380;4.654;2022-07-03T00:13:35;18.40;96.80
16907;DHT22;8570;52.380;4.654;2022-07-03T00:18:37;18.40;96.90
16907;DHT22;8570;52.380;4.654;2022-07-03T00:23:43;18.30;97.00
16907;DHT22;8570;52.380;4.654;2022-07-03T00:28:47;18.30;97.20
16907;DHT22;8570;52.380;4.654;2022-07-03T00:33:51;18.30;97.40
16907;DHT22;8570;52.380;4.654;2022-07-03T00:38:54;18.20;97.50
16907;DHT22;8570;52.380;4.654;2022-07-03T00:43:57;18.20;97.60
16907;DHT22;8570;52.380;4.654;2022-07-03T00:48:59;18.10;97.70
16907;DHT22;8570;52.380;4.654;2022-07-03T00:54:03;18.10;97.70
16907;DHT22;8570;52.380;4.654;2022-07-03T00:59:06;18.10;97.90
16907;DHT22;8570;52.380;4.654;2022-07-03T01:04:17;18.10;98.20
16907;DHT22;8570;52.380;4.654;2022-07-03T01:09:31;18.10;97.90
16907;DHT22;8570;52.380;4.654;2022-07-03T01:14:43;18.00;98.00
16907;DHT22;8570;52.380;4.654;2022-07-03T01:19:48;18.00;98.10
16907;DHT22;8570;52.380;4.654;2022-07-03T01:25:02;18.00;98.20
16907;DHT22;8570;52.380;4.654;2022-07-03T01:30:09;18.00;98.40
16907;DHT22;8570;52.380;4.654;2022-07-03T01:35:13;18.00;98.30
16907;DHT22;8570;52.380;4.654;2022-07-03T01:40:17;18.00;98.40
16907;DHT22;8570;52.380;4.654;2022-07-03T01:45:23;18.00;98.50
16907;DHT22;8570;52.380;4.654;2022-07-03T01:50:29;18.00;98.60
16907;DHT22;8570;52.380;4.654;2022-07-03T01:55:33;18.00;98.60
16907;DHT22;8570;52.380;4.654;2022-07-03T02:00:41;17.90;98.70
16907;DHT22;8570;52.380;4.654;2022-07-03T02:05:47;17.90;98.90
16907;DHT22;8570;52.380;4.654;2022-07-03T02:11:02;17.90;98.70
16907;DHT22;8570;52.380;4.654;2022-07-03T02:16:12;17.90;98.80
16907;DHT22;8570;52.380;4.654;2022-07-03T02:21:19;17.90;98.90
16907;DHT22;8570;52.380;4.654;2022-07-03T02:26:27;17.90;99.20
16907;DHT22;8570;52.380;4.654;2022-07-03T02:31:37;17.90;99.40
16907;DHT22;8570;52.380;4.654;2022-07-03T02:36:44;17.80;99.40
16907;DHT22;8570;52.380;4.654;2022-07-03T02:41:51;17.80;99.50
16907;DHT22;8570;52.380;4.654;2022-07-03T02:47:13;17.80;99.60
16907;DHT22;8570;52.380;4.654;2022-07-03T02:52:26;17.70;99.90
16907;DHT22;8570;52.380;4.654;2022-07-03T02:57:37;17.70;99.90
16907;DHT22;8570;52.380;4.654;2022-07-03T03:02:54;17.70;99.90
16907;DHT22;8570;52.380;4.654;2022-07-03T03:08:04;17.60;99.90
16907;DHT22;8570;52.380;4.654;2022-07-03T03:13:10;17.60;99.90
16907;DHT22;8570;52.380;4.654;2022-07-03T03:18:21;17.60;99.90
16907;DHT22;8570;52.380;4.654;2022-07-03T03:23:33;17.60;99.90
16907;DHT22;8570;52.380;4.654;2022-07-03T03:28:35;17.60;99.90
16907;DHT22;8570;52.380;4.654;2022-07-03T03:33:41;17.50;99.90
16907;DHT22;8570;52.380;4.654;2022-07-03T03:38:43;17.50;99.90
16907;DHT22;8570;52.380;4.654;2022-07-03T03:43:45;17.50;99.90
16907;DHT22;8570;52.380;4.654;2022-07-03T03:48:48;17.40;99.90
16907;DHT22;8570;52.380;4.654;2022-07-03T03:53:50;17.40;99.90
16907;DHT22;8570;52.380;4.654;2022-07-03T03:58:52;17.30;99.90
16907;DHT22;8570;52.380;4.654;2022-07-03T04:03:56;17.30;99.90
16907;DHT22;8570;52.380;4.654;2022-07-03T04:09:00;17.30;99.90
16907;DHT22;8570;52.380;4.654;2022-07-03T04:14:01;17.20;99.90
16907;DHT22;8570;52.380;4.654;2022-07-03T04:19:05;17.20;99.90
16907;DHT22;8570;52.380;4.654;2022-07-03T04:24:07;17.20;99.90
16907;DHT22;8570;52.380;4.654;2022-07-03T04:29:09;17.20;99.90
16907;DHT22;8570;52.380;4.654;2022-07-03T04:34:12;17.10;99.90
16907;DHT22;8570;52.380;4.654;2022-07-03T04:39:14;17.10;99.90
16907;DHT22;8570;52.380;4.654;2022-07-03T04:44:16;17.10;99.90
16907;DHT22;8570;52.380;4.654;2022-07-03T04:49:19;17.10;99.90
16907;DHT22;8570;52.380;4.654;2022-07-03T04:54:21;17.10;99.90
16907;DHT22;8570;52.380;4.654;2022-07-03T04:59:23;17.10;99.90
16907;DHT22;8570;52.380;4.654;2022-07-03T05:04:27;17.10;99.90
16907;DHT22;8570;52.380;4.654;2022-07-03T05:09:29;17.10;99.90
16907;DHT22;8570;52.380;4.654;2022-07-03T05:14:31;17.10;99.90
16907;DHT22;8570;52.380;4.654;2022-07-03T05:19:36;17.20;99.90
16907;DHT22;8570;52.380;4.654;2022-07-03T05:24:38;17.20;99.90
16907;DHT22;8570;52.380;4.654;2022-07-03T05:29:40;17.20;99.90
16907;DHT22;8570;52.380;4.654;2022-07-03T05:34:43;17.30;99.90
16907;DHT22;8570;52.380;4.654;2022-07-03T05:39:45;17.40;99.90
16907;DHT22;8570;52.380;4.654;2022-07-03T05:44:47;17.40;99.90
16907;DHT22;8570;52.380;4.654;2022-07-03T05:49:50;17.50;99.90
16907;DHT22;8570;52.380;4.654;2022-07-03T05:54:55;17.50;99.90
16907;DHT22;8570;52.380;4.654;2022-07-03T05:59:57;17.60;99.90
16907;DHT22;8570;52.380;4.654;2022-07-03T06:05:00;17.70;99.90
16907;DHT22;8570;52.380;4.654;2022-07-03T06:10:04;17.70;99.90
16907;DHT22;8570;52.380;4.654;2022-07-03T06:15:06;17.80;99.90
16907;DHT22;8570;52.380;4.654;2022-07-03T06:20:10;17.90;99.90
16907;DHT22;8570;52.380;4.654;2022-07-03T06:25:12;17.90;99.90
16907;DHT22;8570;52.380;4.654;2022-07-03T06:30:15;18.00;99.90
16907;DHT22;8570;52.380;4.654;2022-07-03T06:35:18;18.10;99.90
16907;DHT22;8570;52.380;4.654;2022-07-03T06:40:20;18.20;99.90
16907;DHT22;8570;52.380;4.654;2022-07-03T06:45:22;18.30;99.90
16907;DHT22;8570;52.380;4.654;2022-07-03T06:50:25;18.30;99.90
16907;DHT22;8570;52.380;4.654;2022-07-03T06:55:27;18.40;99.90
16907;DHT22;8570;52.380;4.654;2022-07-03T07:00:29;18.50;99.90
16907;DHT22;8570;52.380;4.654;2022-07-03T07:05:32;18.60;99.90
16907;DHT22;8570;52.380;4.654;2022-07-03T07:10:34;18.60;99.90
16907;DHT22;8570;52.380;4.654;2022-07-03T07:15:36;18.80;99.90
16907;DHT22;8570;52.380;4.654;2022-07-03T07:20:42;18.90;99.90
16907;DHT22;8570;52.380;4.654;2022-07-03T07:25:56;18.90;99.90
16907;DHT22;8570;52.380;4.654;2022-07-03T07:30:58;19.00;99.90
16907;DHT22;8570;52.380;4.654;2022-07-03T07:36:03;19.00;99.90
16907;DHT22;8570;52.380;4.654;2022-07-03T07:41:08;19.00;99.90
16907;DHT22;8570;52.380;4.654;2022-07-03T07:46:18;19.10;99.90
16907;DHT22;8570;52.380;4.654;2022-07-03T07:51:27;19.10;99.90
16907;DHT22;8570;52.380;4.654;2022-07-03T07:56:47;19.10;99.90
16907;DHT22;8570;52.380;4.654;2022-07-03T08:02:00;19.20;99.90
16907;DHT22;8570;52.380;4.654;2022-07-03T08:07:21;19.40;99.90
16907;DHT22;8570;52.380;4.654;2022-07-03T08:12:37;19.50;99.90
16907;DHT22;8570;52.380;4.654;2022-07-03T08:17:50;19.50;99.90
16907;DHT22;8570;52.380;4.654;2022-07-03T08:22:53;19.60;99.90
16907;DHT22;8570;52.380;4.654;2022-07-03T08:28:02;19.70;99.90
16907;DHT22;8570;52.380;4.654;2022-07-03T08:33:04;19.90;99.90
16907;DHT22;8570;52.380;4.654;2022-07-03T08:38:07;20.10;99.90
16907;DHT22;8570;52.380;4.654;2022-07-03T08:43:09;20.20;99.90
16907;DHT22;8570;52.380;4.654;2022-07-03T08:48:12;20.30;99.90
16907;DHT22;8570;52.380;4.654;2022-07-03T08:53:16;20.40;99.90
16907;DHT22;8570;52.380;4.654;2022-07-03T08:58:22;20.60;99.90
16907;DHT22;8570;52.380;4.654;2022-07-03T09:03:25;20.60;99.90
16907;DHT22;8570;52.380;4.654;2022-07-03T09:08:28;20.70;99.90
16907;DHT22;8570;52.380;4.654;2022-07-03T09:13:32;20.80;99.90
16907;DHT22;8570;52.380;4.654;2022-07-03T09:18:38;21.00;99.90
16907;DHT22;8570;52.380;4.654;2022-07-03T09:23:43;21.20;99.90
16907;DHT22;8570;52.380;4.654;2022-07-03T09:28:48;21.50;99.90
16907;DHT22;8570;52.380;4.654;2022-07-03T09:33:55;21.60;99.90
16907;DHT22;8570;52.380;4.654;2022-07-03T09:38:58;21.80;99.90
16907;DHT22;8570;52.380;4.654;2022-07-03T09:44:00;22.00;99.10
16907;DHT22;8570;52.380;4.654;2022-07-03T09:49:02;22.20;98.60
16907;DHT22;8570;52.380;4.654;2022-07-03T09:54:05;22.40;98.20
16907;DHT22;8570;52.380;4.654;2022-07-03T09:59:11;22.50;97.20
16907;DHT22;8570;52.380;4.654;2022-07-03T10:04:15;22.50;96.90
16907;DHT22;8570;52.380;4.654;2022-07-03T10:09:20;22.30;96.90
16907;DHT22;8570;52.380;4.654;2022-07-03T10:14:23;22.10;96.80
16907;DHT22;8570;52.380;4.654;2022-07-03T10:19:27;21.90;97.90
16907;DHT22;8570;52.380;4.654;2022-07-03T10:24:30;21.90;98.20
16907;DHT22;8570;52.380;4.654;2022-07-03T10:29:33;22.00;98.50
16907;DHT22;8570;52.380;4.654;2022-07-03T10:34:38;22.00;98.90
16907;DHT22;8570;52.380;4.654;2022-07-03T10:39:50;22.10;98.80
16907;DHT22;8570;52.380;4.654;2022-07-03T10:45:04;22.30;99.20
16907;DHT22;8570;52.380;4.654;2022-07-03T10:50:08;22.70;97.90
16907;DHT22;8570;52.380;4.654;2022-07-03T10:55:14;23.00;97.10
16907;DHT22;8570;52.380;4.654;2022-07-03T11:00:18;23.10;96.90
16907;DHT22;8570;52.380;4.654;2022-07-03T11:05:22;23.00;96.70
16907;DHT22;8570;52.380;4.654;2022-07-03T11:10:33;23.20;96.50
16907;DHT22;8570;52.380;4.654;2022-07-03T11:15:39;23.30;95.20
16907;DHT22;8570;52.380;4.654;2022-07-03T11:21:21;23.40;96.00
16907;DHT22;8570;52.380;4.654;2022-07-03T11:26:25;23.50;95.20
16907;DHT22;8570;52.380;4.654;2022-07-03T11:31:27;23.60;94.90
16907;DHT22;8570;52.380;4.654;2022-07-03T11:36:30;23.80;95.30
16907;DHT22;8570;52.380;4.654;2022-07-03T11:41:44;24.00;94.90
16907;DHT22;8570;52.380;4.654;2022-07-03T11:46:48;24.20;94.90
16907;DHT22;8570;52.380;4.654;2022-07-03T11:51:56;24.30;94.90
16907;DHT22;8570;52.380;4.654;2022-07-03T11:57:00;24.50;95.20
16907;DHT22;8570;52.380;4.654;2022-07-03T12:02:02;24.60;94.10
16907;DHT22;8570;52.380;4.654;2022-07-03T12:07:04;24.70;93.40
16907;DHT22;8570;52.380;4.654;2022-07-03T12:12:09;24.40;93.60
16907;DHT22;8570;52.380;4.654;2022-07-03T12:17:12;24.40;94.30
16907;DHT22;8570;52.380;4.654;2022-07-03T12:22:24;24.30;94.20
16907;DHT22;8570;52.380;4.654;2022-07-03T12:27:28;24.40;94.30
16907;DHT22;8570;52.380;4.654;2022-07-03T12:32:31;24.50;93.30
16907;DHT22;8570;52.380;4.654;2022-07-03T12:37:34;24.50;93.00
16907;DHT22;8570;52.380;4.654;2022-07-03T12:42:45;24.60;92.80
16907;DHT22;8570;52.380;4.654;2022-07-03T12:47:57;24.80;93.70
16907;DHT22;8570;52.380;4.654;2022-07-03T12:52:59;24.80;93.50
16907;DHT22;8570;52.380;4.654;2022-07-03T12:58:13;24.80;92.90
16907;DHT22;8570;52.380;4.654;2022-07-03T13:03:35;24.70;93.00
16907;DHT22;8570;52.380;4.654;2022-07-03T13:08:38;24.70;92.80
16907;DHT22;8570;52.380;4.654;2022-07-03T13:13:47;24.60;93.70
16907;DHT22;8570;52.380;4.654;2022-07-03T13:18:56;24.50;92.70
16907;DHT22;8570;52.380;4.654;2022-07-03T13:23:58;24.40;93.80
16907;DHT22;8570;52.380;4.654;2022-07-03T13:29:02;24.50;93.90
16907;DHT22;8570;52.380;4.654;2022-07-03T13:34:05;24.60;93.40
16907;DHT22;8570;52.380;4.654;2022-07-03T13:39:06;24.70;93.60
16907;DHT22;8570;52.380;4.654;2022-07-03T13:44:11;24.60;93.70
16907;DHT22;8570;52.380;4.654;2022-07-03T13:49:13;24.30;93.90
16907;DHT22;8570;52.380;4.654;2022-07-03T13:54:15;24.00;94.30
16907;DHT22;8570;52.380;4.654;2022-07-03T13:59:18;23.50;94.70
16907;DHT22;8570;52.380;4.654;2022-07-03T14:04:20;23.10;95.10
16907;DHT22;8570;52.380;4.654;2022-07-03T14:09:21;22.80;95.50
16907;DHT22;8570;52.380;4.654;2022-07-03T14:14:25;22.70;95.60
16907;DHT22;8570;52.380;4.654;2022-07-03T14:19:27;22.50;95.60
16907;DHT22;8570;52.380;4.654;2022-07-03T14:24:28;22.50;95.80
16907;DHT22;8570;52.380;4.654;2022-07-03T14:29:32;22.50;96.00
16907;DHT22;8570;52.380;4.654;2022-07-03T14:34:51;22.50;96.20
16907;DHT22;8570;52.380;4.654;2022-07-03T14:39:53;22.50;97.10
16907;DHT22;8570;52.380;4.654;2022-07-03T14:44:56;22.70;96.90
16907;DHT22;8570;52.380;4.654;2022-07-03T14:49:58;22.80;96.60
16907;DHT22;8570;52.380;4.654;2022-07-03T14:55:00;22.90;96.00
16907;DHT22;8570;52.380;4.654;2022-07-03T15:00:06;22.80;95.90
16907;DHT22;8570;52.380;4.654;2022-07-03T15:05:09;22.70;95.80
16907;DHT22;8570;52.380;4.654;2022-07-03T15:10:13;22.60;95.90
16907;DHT22;8570;52.380;4.654;2022-07-03T15:15:18;22.50;95.80
16907;DHT22;8570;52.380;4.654;2022-07-03T15:20:22;22.40;95.80
16907;DHT22;8570;52.380;4.654;2022-07-03T15:25:26;22.40;96.40
16907;DHT22;8570;52.380;4.654;2022-07-03T15:30:31;22.40;96.60
16907;DHT22;8570;52.380;4.654;2022-07-03T15:35:33;22.30;96.30
16907;DHT22;8570;52.380;4.654;2022-07-03T15:40:45;22.10;96.70
16907;DHT22;8570;52.380;4.654;2022-07-03T15:45:55;22.10;97.10
16907;DHT22;8570;52.380;4.654;2022-07-03T15:51:08;22.20;96.90
16907;DHT22;8570;52.380;4.654;2022-07-03T15:56:13;22.20;96.30
16907;DHT22;8570;52.380;4.654;2022-07-03T16:01:21;22.30;96.40
16907;DHT22;8570;52.380;4.654;2022-07-03T16:06:42;22.30;96.40
16907;DHT22;8570;52.380;4.654;2022-07-03T16:11:46;22.20;96.40
16907;DHT22;8570;52.380;4.654;2022-07-03T16:16:49;22.10;96.60
16907;DHT22;8570;52.380;4.654;2022-07-03T16:21:53;22.10;96.80
16907;DHT22;8570;52.380;4.654;2022-07-03T16:26:56;22.10;96.60
16907;DHT22;8570;52.380;4.654;2022-07-03T16:32:02;22.00;96.90
16907;DHT22;8570;52.380;4.654;2022-07-03T16:37:07;22.00;97.10
16907;DHT22;8570;52.380;4.654;2022-07-03T16:42:10;21.90;97.10
16907;DHT22;8570;52.380;4.654;2022-07-03T16:47:15;21.80;97.20
16907;DHT22;8570;52.380;4.654;2022-07-03T16:52:18;21.50;97.10
16907;DHT22;8570;52.380;4.654;2022-07-03T16:57:24;21.30;97.20
16907;DHT22;8570;52.380;4.654;2022-07-03T17:02:28;21.20;97.10
16907;DHT22;8570;52.380;4.654;2022-07-03T17:07:31;21.00;97.10
16907;DHT22;8570;52.380;4.654;2022-07-03T17:12:33;20.90;97.70
16907;DHT22;8570;52.380;4.654;2022-07-03T17:17:39;20.70;97.50
16907;DHT22;8570;52.380;4.654;2022-07-03T17:22:43;20.60;97.50
16907;DHT22;8570;52.380;4.654;2022-07-03T17:27:51;20.60;97.80
16907;DHT22;8570;52.380;4.654;2022-07-03T17:32:58;20.60;97.30
16907;DHT22;8570;52.380;4.654;2022-07-03T17:38:08;20.50;97.20
16907;DHT22;8570;52.380;4.654;2022-07-03T17:43:24;20.40;97.40
16907;DHT22;8570;52.380;4.654;2022-07-03T17:54:17;20.20;97.50
16907;DHT22;8570;52.380;4.654;2022-07-03T17:59:22;20.10;97.80
16907;DHT22;8570;52.380;4.654;2022-07-03T18:04:26;20.00;97.90
16907;DHT22;8570;52.380;4.654;2022-07-03T18:09:29;19.90;98.10
16907;DHT22;8570;52.380;4.654;2022-07-03T18:14:34;19.90;98.10
16907;DHT22;8570;52.380;4.654;2022-07-03T18:19:40;19.70;98.00
16907;DHT22;8570;52.380;4.654;2022-07-03T18:24:45;19.70;98.40
16907;DHT22;8570;52.380;4.654;2022-07-03T18:29:50;19.60;98.40
16907;DHT22;8570;52.380;4.654;2022-07-03T18:34:55;19.40;98.70
16907;DHT22;8570;52.380;4.654;2022-07-03T18:40:02;19.30;99.10
16907;DHT22;8570;52.380;4.654;2022-07-03T18:45:04;19.20;99.60
16907;DHT22;8570;52.380;4.654;2022-07-03T18:50:08;19.20;99.50
16907;DHT22;8570;52.380;4.654;2022-07-03T18:55:16;19.10;99.40
16907;DHT22;8570;52.380;4.654;2022-07-03T19:00:26;19.10;99.40
16907;DHT22;8570;52.380;4.654;2022-07-03T19:05:37;19.00;99.50
16907;DHT22;8570;52.380;4.654;2022-07-03T19:10:55;18.90;99.40
16907;DHT22;8570;52.380;4.654;2022-07-03T19:15:59;18.80;99.60
16907;DHT22;8570;52.380;4.654;2022-07-03T19:21:03;18.70;99.80
16907;DHT22;8570;52.380;4.654;2022-07-03T19:26:10;18.70;99.90
16907;DHT22;8570;52.380;4.654;2022-07-03T19:31:17;18.60;99.90
16907;DHT22;8570;52.380;4.654;2022-07-03T19:36:20;18.60;99.90
16907;DHT22;8570;52.380;4.654;2022-07-03T19:41:24;18.60;99.90
16907;DHT22;8570;52.380;4.654;2022-07-03T19:46:26;18.50;99.90
16907;DHT22;8570;52.380;4.654;2022-07-03T19:51:28;18.40;99.90
16907;DHT22;8570;52.380;4.654;2022-07-03T19:56:31;18.40;99.90
16907;DHT22;8570;52.380;4.654;2022-07-03T20:01:34;18.30;99.90
16907;DHT22;8570;52.380;4.654;2022-07-03T20:06:38;18.30;99.90
16907;DHT22;8570;52.380;4.654;2022-07-03T20:11:41;18.20;99.90
16907;DHT22;8570;52.380;4.654;2022-07-03T20:16:43;18.10;99.90
16907;DHT22;8570;52.380;4.654;2022-07-03T20:21:47;18.10;99.90
16907;DHT22;8570;52.380;4.654;2022-07-03T20:26:50;18.00;99.90
16907;DHT22;8570;52.380;4.654;2022-07-03T20:31:55;17.90;99.80
16907;DHT22;8570;52.380;4.654;2022-07-03T20:36:59;17.90;99.90
16907;DHT22;8570;52.380;4.654;2022-07-03T20:42:03;17.80;99.90
16907;DHT22;8570;52.380;4.654;2022-07-03T20:47:06;17.70;99.90
16907;DHT22;8570;52.380;4.654;2022-07-03T20:52:08;17.60;99.90
16907;DHT22;8570;52.380;4.654;2022-07-03T20:57:11;17.60;99.90
16907;DHT22;8570;52.380;4.654;2022-07-03T21:02:13;17.60;99.90
16907;DHT22;8570;52.380;4.654;2022-07-03T21:07:15;17.60;99.90
16907;DHT22;8570;52.380;4.654;2022-07-03T21:12:19;17.50;99.90
16907;DHT22;8570;52.380;4.654;2022-07-03T21:17:27;17.50;99.90
16907;DHT22;8570;52.380;4.654;2022-07-03T21:22:29;17.40;99.90
16907;DHT22;8570;52.380;4.654;2022-07-03T21:27:33;17.40;99.90
16907;DHT22;8570;52.380;4.654;2022-07-03T21:32:34;17.40;99.90
16907;DHT22;8570;52.380;4.654;2022-07-03T21:37:37;17.40;99.90
16907;DHT22;8570;52.380;4.654;2022-07-03T21:42:40;17.30;99.90
16907;DHT22;8570;52.380;4.654;2022-07-03T21:47:42;17.20;99.90
16907;DHT22;8570;52.380;4.654;2022-07-03T21:52:44;17.20;99.90
16907;DHT22;8570;52.380;4.654;2022-07-03T21:57:47;17.10;99.90
16907;DHT22;8570;52.380;4.654;2022-07-03T22:02:49;17.10;99.90
16907;DHT22;8570;52.380;4.654;2022-07-03T22:07:54;17.00;99.90
16907;DHT22;8570;52.380;4.654;2022-07-03T22:12:58;17.00;99.90
16907;DHT22;8570;52.380;4.654;2022-07-03T22:18:00;17.00;99.90
16907;DHT22;8570;52.380;4.654;2022-07-03T22:23:06;16.90;99.90
16907;DHT22;8570;52.380;4.654;2022-07-03T22:28:10;16.90;99.90
16907;DHT22;8570;52.380;4.654;2022-07-03T22:33:12;16.90;99.90
16907;DHT22;8570;52.380;4.654;2022-07-03T22:38:14;16.80;99.90
16907;DHT22;8570;52.380;4.654;2022-07-03T22:43:17;16.80;99.90
16907;DHT22;8570;52.380;4.654;2022-07-03T22:48:19;16.70;99.90
16907;DHT22;8570;52.380;4.654;2022-07-03T22:53:22;16.60;99.90
16907;DHT22;8570;52.380;4.654;2022-07-03T22:58:25;16.60;99.90
16907;DHT22;8570;52.380;4.654;2022-07-03T23:03:27;16.60;99.90
16907;DHT22;8570;52.380;4.654;2022-07-03T23:08:29;16.50;99.90
16907;DHT22;8570;52.380;4.654;2022-07-03T23:13:32;16.50;99.90
16907;DHT22;8570;52.380;4.654;2022-07-03T23:18:34;16.40;99.90
16907;DHT22;8570;52.380;4.654;2022-07-03T23:23:36;16.40;99.90
16907;DHT22;8570;52.380;4.654;2022-07-03T23:28:40;16.30;99.90
16907;DHT22;8570;52.380;4.654;2022-07-03T23:33:42;16.20;99.90
16907;DHT22;8570;52.380;4.654;2022-07-03T23:38:44;16.20;99.90
16907;DHT22;8570;52.380;4.654;2022-07-03T23:43:47;16.20;99.90
16907;DHT22;8570;52.380;4.654;2022-07-03T23:48:49;16.10;99.90
16907;DHT22;8570;52.380;4.654;2022-07-03T23:54:08;16.10;99.90
16907;DHT22;8570;52.380;4.654;2022-07-03T23:59:11;16.10;99.90
